Time;durP1;ratioP1;P1;durP2;ratioP2;P2;SDS_P1;SDS_P2;PMS_P1;PMS_P2;Temp;Humidity;BMP_temperature;BMP_pressure;BME280_temperature;BME280_humidity;BME280_pressure;Samples;Min_cycle;Max_cycle;Signal;HPM_P1;HPM_P2
2022/10/05 00:02:17;;;;;;;7.40;3.85;;;;;;;18.79;65.28;101313.31;5014280;28;20079;-44
2022/10/05 00:04:44;;;;;;;13.50;4.45;;;;;;;18.69;64.80;101311.25;5014883;28;20061;-40
2022/10/05 00:07:15;;;;;;;13.40;4.63;;;;;;;18.36;65.53;101310.16;5014550;28;20028;-41
2022/10/05 00:09:44;;;;;;;14.30;5.07;;;;;;;18.34;66.07;101306.91;5014404;28;20050;-41
2022/10/05 00:12:17;;;;;;;10.82;3.88;;;;;;;18.20;66.42;101306.38;5014520;28;20075;-41
2022/10/05 00:14:45;;;;;;;10.05;4.45;;;;;;;18.19;66.11;101302.03;5014140;28;20068;-42
2022/10/05 00:17:22;;;;;;;10.68;4.35;;;;;;;18.33;65.57;101307.16;5014413;28;20100;-43
2022/10/05 00:19:52;;;;;;;10.02;4.00;;;;;;;18.45;65.48;101295.16;5014165;28;20048;-41
2022/10/05 00:22:28;;;;;;;10.88;4.00;;;;;;;18.46;65.14;101293.25;5014287;28;20038;-40
2022/10/05 00:24:58;;;;;;;10.00;3.97;;;;;;;18.62;65.13;101297.84;5014251;28;20029;-41
2022/10/05 00:27:30;;;;;;;11.85;4.13;;;;;;;18.75;64.24;101294.00;5014658;28;20053;-41
2022/10/05 00:29:59;;;;;;;12.90;4.10;;;;;;;18.62;64.64;101295.13;5013829;28;20036;-41
2022/10/05 00:32:26;;;;;;;10.23;4.13;;;;;;;18.22;65.71;101291.78;5014234;28;20057;-41
2022/10/05 00:34:52;;;;;;;8.73;4.68;;;;;;;18.24;66.08;101295.06;5013973;28;20026;-41
2022/10/05 00:37:18;;;;;;;13.57;4.30;;;;;;;18.16;66.45;101291.72;5013884;28;20034;-42
2022/10/05 00:39:45;;;;;;;9.48;4.63;;;;;;;18.10;66.66;101287.28;5013688;28;20037;-41
2022/10/05 00:42:56;;;;;;;10.55;4.22;;;;;;;18.20;66.32;101292.84;5014029;28;20105;-40
2022/10/05 00:45:32;;;;;;;8.02;4.35;;;;;;;18.37;65.78;101295.53;4991285;28;20450;-41
2022/10/05 00:48:31;;;;;;;12.57;4.25;;;;;;;18.13;66.23;101286.75;5013993;28;20030;-40
2022/10/05 00:51:01;;;;;;;12.15;3.95;;;;;;;18.07;67.00;101289.63;5013637;28;20084;-41
2022/10/05 00:53:44;;;;;;;11.52;4.47;;;;;;;18.06;67.18;101283.41;5013613;28;20030;-41
2022/10/05 00:56:34;;;;;;;10.25;4.05;;;;;;;18.18;66.22;101281.44;5013824;28;20033;-41
2022/10/05 00:59:35;;;;;;;16.65;4.53;;;;;;;18.23;66.25;101285.31;5013682;28;20029;-42
2022/10/05 01:02:29;;;;;;;9.38;4.07;;;;;;;18.20;66.53;101284.69;5004715;28;20401;-40
2022/10/05 01:05:14;;;;;;;13.25;4.50;;;;;;;17.80;67.91;101282.13;5014026;28;20337;-41
2022/10/05 01:07:54;;;;;;;11.98;4.85;;;;;;;17.89;67.05;101280.66;5022497;28;20053;-41
2022/10/05 01:10:29;;;;;;;15.07;4.38;;;;;;;17.88;67.01;101289.88;5033083;28;20025;-42
2022/10/05 01:13:10;;;;;;;;;;;;;;;17.90;66.57;101290.44;5033888;28;20397;-40
2022/10/05 01:16:17;;;;;;;8.65;3.97;;;;;;;17.95;66.09;101295.13;5026397;28;19921;-40
2022/10/05 01:18:44;;;;;;;13.30;4.65;;;;;;;17.90;66.05;101293.13;4960952;28;20090;-41
2022/10/05 01:21:27;;;;;;;15.52;4.55;;;;;;;17.96;66.37;101294.06;5004599;28;20516;-40
2022/10/05 01:24:06;;;;;;;10.75;4.38;;;;;;;17.80;66.38;101294.84;5016287;28;20040;-42
2022/10/05 01:26:56;;;;;;;11.50;4.38;;;;;;;17.71;67.03;101290.84;5012830;28;20498;-41
2022/10/05 01:29:44;;;;;;;15.30;5.07;;;;;;;17.85;67.39;101294.94;5011109;28;20026;-46
2022/10/05 01:32:35;;;;;;;10.77;5.07;;;;;;;17.63;68.11;101292.88;5030514;28;20099;-47
2022/10/05 01:35:28;;;;;;;10.10;4.70;;;;;;;17.70;67.73;101292.72;5017073;28;20475;-47
2022/10/05 01:37:57;;;;;;;17.92;4.53;;;;;;;17.67;68.29;101296.75;5012662;28;20100;-47
2022/10/05 01:40:45;;;;;;;18.35;5.32;;;;;;;17.65;67.51;101295.34;5012447;28;20037;-48
2022/10/05 01:43:36;;;;;;;9.32;4.55;;;;;;;17.66;67.50;101297.81;5012966;28;20022;-48
2022/10/05 01:46:24;;;;;;;13.25;4.70;;;;;;;17.57;68.50;101295.72;5023338;28;20022;-46
2022/10/05 01:49:07;;;;;;;12.40;4.25;;;;;;;17.47;68.91;101292.81;5013032;28;20032;-48
2022/10/05 01:51:47;;;;;;;9.40;4.43;;;;;;;17.44;69.36;101294.13;5017324;28;20435;-44
2022/10/05 01:54:21;;;;;;;14.52;4.93;;;;;;;17.44;68.93;101302.25;5023688;28;20513;-44
2022/10/05 01:57:09;;;;;;;10.68;4.00;;;;;;;17.35;69.11;101290.16;5012614;28;20072;-43
2022/10/05 01:59:56;;;;;;;9.95;4.57;;;;;;;17.09;69.70;101297.72;5025741;28;20069;-45
2022/10/05 02:02:25;;;;;;;11.55;4.78;;;;;;;16.97;69.96;101294.22;5032041;28;20358;-44
2022/10/05 02:05:02;;;;;;;11.55;4.80;;;;;;;17.14;69.78;101303.25;5026537;28;20029;-43
2022/10/05 02:07:33;;;;;;;21.30;5.43;;;;;;;16.98;69.32;101297.75;5012463;28;20030;-46
2022/10/05 02:10:04;;;;;;;16.17;4.90;;;;;;;16.90;70.36;101301.66;5020672;28;20164;-43
2022/10/05 02:12:36;;;;;;;11.05;5.63;;;;;;;16.72;70.89;101299.09;5032949;28;20037;-44
2022/10/05 02:15:12;;;;;;;13.40;5.18;;;;;;;16.77;70.77;101291.09;5032640;28;20053;-43
2022/10/05 02:17:46;;;;;;;14.77;5.45;;;;;;;16.45;71.71;101299.50;5032142;28;20498;-46
2022/10/05 02:20:19;;;;;;;10.23;4.93;;;;;;;16.44;72.00;101291.66;5032285;28;20036;-44
2022/10/05 02:22:52;;;;;;;11.35;4.95;;;;;;;16.48;72.03;101307.13;5032677;28;20033;-43
2022/10/05 02:25:39;;;;;;;13.88;5.50;;;;;;;16.48;72.07;101300.91;5032636;28;20029;-46
2022/10/05 02:28:21;;;;;;;14.45;5.32;;;;;;;16.26;72.92;101303.34;5047553;28;20059;-47
2022/10/05 02:31:00;;;;;;;11.23;5.07;;;;;;;16.42;72.42;101305.38;5039100;28;20037;-43
2022/10/05 02:33:31;;;;;;;10.07;4.68;;;;;;;16.37;72.21;101311.47;5032154;28;20034;-45
2022/10/05 02:36:17;;;;;;;11.82;4.95;;;;;;;16.32;72.55;101313.22;5032198;28;20028;-43
2022/10/05 02:38:58;;;;;;;12.40;4.68;;;;;;;16.25;72.69;101321.44;5026702;28;20030;-44
2022/10/05 02:41:41;;;;;;;11.88;5.30;;;;;;;16.30;72.76;101318.88;5031476;28;20021;-43
2022/10/05 02:44:38;;;;;;;12.20;4.93;;;;;;;16.43;72.19;101327.81;5031813;28;20026;-47
2022/10/05 02:47:32;;;;;;;13.57;4.72;;;;;;;16.41;72.25;101317.25;5027168;28;20037;-43
2022/10/05 02:50:07;;;;;;;16.30;5.57;;;;;;;16.36;72.28;101322.50;5027676;28;20480;-44
2022/10/05 02:53:05;;;;;;;9.38;5.05;;;;;;;16.26;72.83;101325.78;5026769;28;20088;-45
2022/10/05 02:56:03;;;;;;;12.73;4.70;;;;;;;16.17;72.93;101323.66;5010164;28;20104;-43
2022/10/05 02:58:44;;;;;;;14.82;5.28;;;;;;;16.25;72.79;101328.72;5012104;28;20033;-43
2022/10/05 03:01:31;;;;;;;10.80;5.25;;;;;;;16.17;73.16;101320.97;5031643;28;20034;-44
2022/10/05 03:04:25;;;;;;;14.40;5.00;;;;;;;16.05;73.56;101329.84;5051588;28;20025;-45
2022/10/05 03:07:06;;;;;;;13.63;4.82;;;;;;;15.97;74.00;101335.56;5021415;28;20083;-45
2022/10/05 03:09:41;;;;;;;12.63;5.78;;;;;;;15.92;74.51;101329.22;5051129;28;20021;-42
2022/10/05 03:12:07;;;;;;;10.93;5.53;;;;;;;15.93;74.25;101339.78;5051619;28;20017;-45
2022/10/05 03:15:03;;;;;;;18.20;5.60;;;;;;;15.96;74.31;101342.03;5051742;28;20107;-45
2022/10/05 03:17:55;;;;;;;13.80;5.85;;;;;;;15.83;74.64;101343.03;5047043;28;20040;-42
2022/10/05 03:21:03;;;;;;;11.13;4.72;;;;;;;15.96;74.08;101344.72;5030422;28;20163;-45
2022/10/05 03:23:58;;;;;;;12.73;5.80;;;;;;;15.80;74.70;101345.38;5004061;28;20144;-46
2022/10/05 03:26:48;;;;;;;9.83;5.17;;;;;;;15.78;74.92;101344.78;4997846;28;20042;-43
2022/10/05 03:29:29;;;;;;;13.35;5.40;;;;;;;15.69;75.64;101344.25;5014164;28;20463;-46
2022/10/05 03:32:26;;;;;;;15.65;5.57;;;;;;;15.50;76.57;101354.22;5035543;28;20080;-43
2022/10/05 03:35:02;;;;;;;15.30;5.72;;;;;;;15.50;76.50;101359.63;5023623;28;20492;-43
2022/10/05 03:37:52;;;;;;;12.70;5.70;;;;;;;15.68;75.49;101352.59;5037992;28;20040;-46
2022/10/05 03:40:35;;;;;;;16.08;6.07;;;;;;;15.43;76.49;101349.94;5040794;28;20030;-44
2022/10/05 03:43:32;;;;;;;12.18;5.18;;;;;;;15.48;76.57;101344.69;5031142;28;20040;-45
2022/10/05 03:46:36;;;;;;;14.63;5.35;;;;;;;15.38;76.88;101350.66;5024393;28;20033;-44
2022/10/05 03:49:35;;;;;;;13.55;5.60;;;;;;;15.45;76.81;101351.38;5032024;28;20079;-44
2022/10/05 03:52:15;;;;;;;12.55;5.03;;;;;;;15.44;76.78;101352.44;5030893;28;20108;-43
2022/10/05 03:54:49;;;;;;;16.02;5.32;;;;;;;15.31;77.13;101352.56;5031224;28;20103;-46
2022/10/05 03:57:26;;;;;;;19.33;5.78;;;;;;;15.24;78.11;101343.75;5030977;28;20030;-44
2022/10/05 03:59:59;;;;;;;13.38;6.13;;;;;;;15.14;78.63;101346.94;5030976;28;20029;-42
2022/10/05 04:02:55;;;;;;;10.68;5.63;;;;;;;15.16;78.67;101344.88;5034173;28;20022;-45
2022/10/05 04:05:28;;;;;;;17.42;6.10;;;;;;;15.05;79.24;101343.75;5034634;28;20030;-46
2022/10/05 04:08:09;;;;;;;18.05;6.15;;;;;;;15.24;78.52;101347.25;5034440;28;20026;-44
2022/10/05 04:10:53;;;;;;;14.38;6.05;;;;;;;15.27;78.68;101343.31;5014602;28;20025;-43
2022/10/05 04:13:26;;;;;;;15.73;5.53;;;;;;;15.24;78.65;101351.81;5014844;28;20033;-41
2022/10/05 04:16:16;;;;;;;16.05;5.70;;;;;;;15.13;78.93;101352.56;5018953;28;20025;-42
2022/10/05 04:18:56;;;;;;;18.35;6.38;;;;;;;15.22;78.63;101351.25;5034242;28;20192;-41
2022/10/05 04:21:24;;;;;;;22.50;5.85;;;;;;;15.27;78.48;101349.53;5032988;28;20036;-42
2022/10/05 04:24:19;;;;;;;14.00;5.60;;;;;;;15.32;78.63;101354.22;5033302;28;20492;-43
2022/10/05 04:26:54;;;;;;;16.40;5.63;;;;;;;15.41;78.08;101354.75;5028559;28;20045;-41
2022/10/05 04:29:38;;;;;;;18.15;5.65;;;;;;;15.39;78.08;101357.69;5032151;28;20038;-40
2022/10/05 04:32:25;;;;;;;13.13;6.03;;;;;;;15.29;78.80;101354.69;5034070;28;20048;-41
2022/10/05 04:35:12;;;;;;;15.05;6.10;;;;;;;15.25;78.82;101361.56;5032958;28;20034;-41
2022/10/05 04:37:47;;;;;;;13.70;5.90;;;;;;;15.28;78.41;101358.44;5032394;28;20041;-41
2022/10/05 04:40:28;;;;;;;22.52;5.75;;;;;;;15.38;78.49;101360.59;5034108;28;20359;-42
2022/10/05 04:43:14;;;;;;;14.95;6.40;;;;;;;15.19;79.18;101363.28;5031967;28;20407;-47
2022/10/05 04:46:15;;;;;;;19.65;6.88;;;;;;;15.08;79.66;101355.94;5033771;28;20033;-43
2022/10/05 04:49:11;;;;;;;14.40;6.25;;;;;;;15.04;79.81;101360.94;4997400;28;20042;-43
2022/10/05 04:52:02;;;;;;;11.43;5.57;;;;;;;15.25;78.84;101361.56;5017628;28;20033;-43
2022/10/05 04:54:47;;;;;;;16.75;6.38;;;;;;;15.17;79.04;101359.19;5033699;28;20099;-46
2022/10/05 04:57:22;;;;;;;11.10;6.10;;;;;;;15.32;78.73;101365.84;5031956;28;20038;-45
2022/10/05 05:00:08;;;;;;;;;;;;;;;15.00;79.88;101370.53;5033716;28;20029;-44
2022/10/05 05:02:59;;;;;;;13.32;5.90;;;;;;;15.19;79.16;101374.06;5033446;28;19917;-44
2022/10/05 05:05:45;;;;;;;18.90;7.05;;;;;;;15.16;79.04;101371.00;5031927;28;21071;-45
2022/10/05 05:08:30;;;;;;;16.73;6.20;;;;;;;15.30;78.50;101375.19;5013581;28;20038;-46
2022/10/05 05:11:31;;;;;;;14.40;6.18;;;;;;;15.31;78.26;101376.84;5018873;28;20029;-46
2022/10/05 05:13:57;;;;;;;20.77;6.82;;;;;;;15.35;77.81;101380.75;5028696;28;20025;-47
2022/10/05 05:16:26;;;;;;;16.92;7.20;;;;;;;15.26;78.52;101380.22;5021117;28;20105;-45
2022/10/05 05:19:11;;;;;;;11.23;6.40;;;;;;;15.27;78.54;101391.84;5033157;28;20398;-44
2022/10/05 05:22:07;;;;;;;17.80;6.10;;;;;;;15.30;78.13;101384.13;5032452;28;20025;-46
2022/10/05 05:24:45;;;;;;;14.68;6.88;;;;;;;15.05;79.55;101381.47;5033135;28;20029;-45
2022/10/05 05:27:32;;;;;;;16.38;7.18;;;;;;;15.22;78.81;101376.34;5031307;28;20486;-45
2022/10/05 05:30:04;;;;;;;16.77;6.57;;;;;;;15.09;80.22;101383.72;5032627;28;20037;-44
2022/10/05 05:32:40;;;;;;;21.77;7.07;;;;;;;14.91;81.49;101377.25;5031284;28;20072;-43
2022/10/05 05:35:28;;;;;;;17.15;6.88;;;;;;;15.09;80.54;101375.63;5032726;28;20034;-48
2022/10/05 05:38:34;;;;;;;24.70;7.55;;;;;;;15.18;80.00;101385.91;5032144;28;20125;-46
2022/10/05 05:41:24;;;;;;;14.70;6.57;;;;;;;15.13;80.26;101376.84;5030859;28;20448;-43
2022/10/05 05:44:00;;;;;;;13.35;6.50;;;;;;;15.07;79.84;101378.56;5032672;28;20033;-44
2022/10/05 05:46:30;;;;;;;14.55;6.88;;;;;;;15.16;79.36;101377.22;5031873;28;20159;-43
2022/10/05 05:48:57;;;;;;;18.10;7.20;;;;;;;15.20;78.73;101364.91;5032241;28;20025;-44
2022/10/05 05:51:38;;;;;;;12.02;6.40;;;;;;;15.12;79.02;101367.09;5030463;28;20026;-43
2022/10/05 05:54:22;;;;;;;14.50;6.75;;;;;;;15.16;78.84;101363.75;5031977;28;20064;-44
2022/10/05 05:57:03;;;;;;;17.73;8.10;;;;;;;14.96;79.93;101363.09;5031695;28;20030;-44
2022/10/05 05:59:51;;;;;;;14.38;7.32;;;;;;;14.90;80.24;101361.31;5030193;28;20052;-44
2022/10/05 06:02:23;;;;;;;19.92;7.90;;;;;;;14.99;79.72;101368.03;5032478;28;20030;-44
2022/10/05 06:05:00;;;;;;;15.80;7.75;;;;;;;15.02;79.72;101365.72;5030830;28;20029;-43
2022/10/05 06:07:30;;;;;;;19.17;7.20;;;;;;;15.03;79.63;101361.16;5032581;28;20075;-43
2022/10/05 06:10:25;;;;;;;17.42;7.30;;;;;;;14.96;79.47;101358.53;5031103;28;20113;-44
2022/10/05 06:12:55;;;;;;;20.63;7.82;;;;;;;14.88;79.93;101360.69;5031798;28;20525;-43
2022/10/05 06:15:52;;;;;;;22.98;7.28;;;;;;;14.97;79.46;101359.38;5031146;28;20033;-43
2022/10/05 06:18:21;;;;;;;14.80;7.53;;;;;;;14.95;79.71;101361.47;5032355;28;20032;-43
2022/10/05 06:21:09;;;;;;;15.43;6.60;;;;;;;15.08;79.00;101363.19;5030266;28;20052;-43
2022/10/05 06:23:53;;;;;;;18.45;7.38;;;;;;;14.94;79.14;101367.91;5032127;28;20453;-43
2022/10/05 06:26:33;;;;;;;15.88;6.47;;;;;;;15.01;78.92;101360.56;5012444;28;20044;-43
2022/10/05 06:29:09;;;;;;;16.75;7.20;;;;;;;14.82;79.81;101361.56;5013945;28;20064;-43
2022/10/05 06:32:19;;;;;;;19.00;7.28;;;;;;;14.75;79.82;101375.94;5011999;28;20153;-43
2022/10/05 06:35:20;;;;;;;14.18;6.38;;;;;;;14.77;79.90;101381.13;5007536;28;20071;-43
2022/10/05 06:38:05;;;;;;;20.13;6.93;;;;;;;14.77;79.53;101376.56;5026352;28;20057;-44
2022/10/05 06:40:56;;;;;;;22.83;7.13;;;;;;;14.66;80.00;101376.44;5030560;28;20033;-43
2022/10/05 06:43:25;;;;;;;17.88;6.70;;;;;;;14.72;79.53;101380.97;5031957;28;20433;-43
2022/10/05 06:46:09;;;;;;;17.48;6.80;;;;;;;14.83;79.01;101382.94;5030806;28;20037;-45
2022/10/05 06:49:11;;;;;;;17.63;6.88;;;;;;;14.65;79.56;101374.78;5031774;28;20041;-43
2022/10/05 06:52:01;;;;;;;15.43;6.65;;;;;;;14.71;79.43;101381.97;5031705;28;20069;-42
2022/10/05 06:54:36;;;;;;;14.02;6.78;;;;;;;14.62;79.52;101376.06;5029882;28;20083;-44
2022/10/05 06:57:11;;;;;;;16.05;6.88;;;;;;;14.48;80.56;101378.00;5031609;28;20022;-46
2022/10/05 06:59:49;;;;;;;13.38;7.00;;;;;;;14.47;80.68;101375.53;5029337;28;20033;-43
2022/10/05 07:02:18;;;;;;;14.68;6.78;;;;;;;14.64;80.09;101383.91;5031844;28;20512;-43
2022/10/05 07:05:11;;;;;;;16.70;6.88;;;;;;;14.63;80.06;101374.19;5030554;28;20100;-44
2022/10/05 07:07:59;;;;;;;17.33;6.68;;;;;;;14.41;80.71;101381.78;5030983;28;20109;-43
2022/10/05 07:10:56;;;;;;;14.02;6.45;;;;;;;14.60;79.91;101380.00;5031291;28;20025;-43
2022/10/05 07:13:49;;;;;;;15.45;6.72;;;;;;;14.51;80.41;101376.75;5030209;28;20034;-43
2022/10/05 07:16:24;;;;;;;16.42;6.75;;;;;;;14.26;81.48;101374.81;5011547;28;20057;-44
2022/10/05 07:19:18;;;;;;;21.30;6.78;;;;;;;14.52;80.33;101379.22;5031434;28;20040;-43
2022/10/05 07:22:06;;;;;;;14.43;6.82;;;;;;;14.52;80.22;101381.91;5030389;28;20064;-43
2022/10/05 07:24:47;;;;;;;22.02;7.10;;;;;;;14.55;80.32;101387.91;5011617;28;20034;-43
2022/10/05 07:27:21;;;;;;;17.52;7.10;;;;;;;14.48;80.59;101385.25;5016463;28;20049;-42
2022/10/05 07:29:53;;;;;;;15.63;6.75;;;;;;;14.39;81.11;101382.00;5031072;28;20033;-44
2022/10/05 07:32:44;;;;;;;17.70;6.93;;;;;;;14.33;81.11;101382.06;5029609;28;20061;-43
2022/10/05 07:37:53;;;;;;;15.18;6.43;;;;;;;14.52;80.07;101383.78;5028411;28;20114;-44
2022/10/05 07:38:12;;;;;;;16.67;5.88;;;;;;;14.42;80.55;101378.03;5024418;28;20052;-42
2022/10/05 07:40:49;;;;;;;15.73;6.50;;;;;;;14.36;81.01;101374.34;5034989;28;20433;-44
2022/10/05 07:43:37;;;;;;;14.57;6.90;;;;;;;14.53;80.20;101378.19;5034164;28;20370;-44
2022/10/05 07:46:30;;;;;;;20.38;7.20;;;;;;;14.42;80.81;101383.41;5055268;28;20473;-44
2022/10/05 07:49:23;;;;;;;15.45;6.72;;;;;;;14.46;80.48;101382.78;5054364;28;20128;-42
2022/10/05 07:52:01;;;;;;;16.10;6.50;;;;;;;14.30;80.83;101386.00;5013246;28;20124;-46
2022/10/05 07:54:46;;;;;;;16.77;6.55;;;;;;;14.15;82.01;101380.88;5025926;28;20025;-45
2022/10/05 07:57:29;;;;;;;15.05;7.15;;;;;;;14.19;81.80;101379.44;5034871;28;20037;-45
2022/10/05 08:00:01;;;;;;;18.40;7.10;;;;;;;14.17;81.83;101384.22;5034680;28;20025;-43
2022/10/05 08:02:35;;;;;;;12.35;6.97;;;;;;;14.19;82.14;101384.00;5034669;28;20029;-43
2022/10/05 08:05:13;;;;;;;15.88;7.00;;;;;;;14.33;81.35;101380.19;5034739;28;20386;-44
2022/10/05 08:07:39;;;;;;;21.20;7.50;;;;;;;14.39;80.94;101382.00;5033923;28;20026;-43
2022/10/05 08:10:17;;;;;;;17.27;6.53;;;;;;;14.41;80.61;101390.69;5034599;28;20029;-43
2022/10/05 08:12:54;;;;;;;18.05;6.90;;;;;;;14.43;80.49;101387.75;5034534;28;20033;-44
2022/10/05 08:15:27;;;;;;;17.15;7.03;;;;;;;14.23;81.25;101395.97;5018663;28;20076;-43
2022/10/05 08:17:59;;;;;;;21.95;6.72;;;;;;;14.43;80.76;101395.84;5014597;28;20478;-45
2022/10/05 08:20:48;;;;;;;21.60;6.90;;;;;;;14.31;80.85;101392.19;5014478;28;20037;-45
2022/10/05 08:23:37;;;;;;;16.02;6.78;;;;;;;14.41;80.72;101393.38;5031940;28;20038;-47
2022/10/05 08:26:38;;;;;;;15.70;6.32;;;;;;;14.47;80.43;101395.22;5034754;28;20466;-48
2022/10/05 08:29:05;;;;;;;19.65;7.07;;;;;;;14.19;81.55;101395.56;5033201;28;20041;-44
2022/10/05 08:31:36;;;;;;;20.73;7.53;;;;;;;14.20;81.72;101391.00;5032084;28;20052;-48
2022/10/05 08:34:24;;;;;;;15.77;6.93;;;;;;;14.19;81.69;101400.13;5033352;28;20034;-48
2022/10/05 08:37:00;;;;;;;18.05;6.68;;;;;;;14.12;82.67;101402.06;5031797;28;20033;-47
2022/10/05 08:39:30;;;;;;;;;;;;;;;14.28;81.72;101396.16;5034123;28;20474;-47
2022/10/05 08:42:11;;;;;;;16.80;7.57;;;;;;;14.30;81.29;101395.94;5033077;28;20281;-42
2022/10/05 08:45:07;;;;;;;18.30;7.00;;;;;;;14.26;81.45;101400.91;5034070;28;20025;-43
2022/10/05 08:47:40;;;;;;;21.02;7.88;;;;;;;14.12;82.02;101396.66;5032140;28;20084;-43
2022/10/05 08:50:39;;;;;;;18.63;7.45;;;;;;;14.22;81.86;101395.16;5033464;28;20057;-44
2022/10/05 08:53:18;;;;;;;18.63;6.95;;;;;;;14.14;82.17;101402.66;5033398;28;20132;-43
2022/10/05 08:56:21;;;;;;;17.55;7.03;;;;;;;14.17;82.05;101404.94;5031947;28;20026;-44
2022/10/05 08:59:11;;;;;;;19.23;6.43;;;;;;;14.10;82.65;101399.59;5033465;28;20037;-42
2022/10/05 09:01:40;;;;;;;21.52;7.57;;;;;;;14.11;82.72;101398.53;5032501;28;20056;-43
2022/10/05 09:04:34;;;;;;;20.35;8.18;;;;;;;14.12;83.05;101399.38;5033648;28;20104;-44
2022/10/05 09:07:14;;;;;;;19.33;7.80;;;;;;;14.28;82.39;101401.53;5032299;28;20034;-44
2022/10/05 09:10:24;;;;;;;19.98;7.65;;;;;;;14.14;83.02;101408.84;5033207;28;20040;-42
2022/10/05 09:12:59;;;;;;;18.35;7.05;;;;;;;14.14;83.22;101405.34;5016654;28;20050;-42
2022/10/05 09:15:28;;;;;;;14.77;7.07;;;;;;;14.16;83.36;101405.97;5016623;28;20024;-43
2022/10/05 09:18:16;;;;;;;16.20;7.82;;;;;;;14.05;83.90;101402.09;5032017;28;20192;-42
2022/10/05 09:20:45;;;;;;;17.63;7.35;;;;;;;14.08;83.77;101408.91;5032727;28;20077;-43
2022/10/05 09:23:15;;;;;;;18.25;8.05;;;;;;;14.19;83.21;101406.34;5033021;28;20033;-46
2022/10/05 09:25:55;;;;;;;23.20;7.82;;;;;;;14.26;83.15;101406.31;5032218;28;20495;-44
2022/10/05 09:28:43;;;;;;;21.85;8.25;;;;;;;14.18;83.10;101402.00;5013178;28;20029;-43
2022/10/05 09:31:22;;;;;;;18.40;7.47;;;;;;;14.00;83.67;101405.44;5020818;28;20046;-43
2022/10/05 09:34:25;;;;;;;19.38;7.85;;;;;;;14.10;83.97;101398.72;5032920;28;20041;-42
2022/10/05 09:36:54;;;;;;;22.10;7.63;;;;;;;14.12;83.44;101399.38;5031755;28;20486;-42
2022/10/05 09:39:25;;;;;;;16.67;7.95;;;;;;;14.05;83.55;101402.09;5031425;28;20110;-44
2022/10/05 09:42:11;;;;;;;20.15;7.78;;;;;;;13.98;83.97;101402.09;5030910;28;20380;-44
2022/10/05 09:44:58;;;;;;;23.75;7.97;;;;;;;14.11;83.72;101403.09;5032858;28;20121;-46
2022/10/05 09:48:05;;;;;;;16.48;7.60;;;;;;;14.01;83.96;101403.56;5031390;28;20041;-43
2022/10/05 09:50:53;;;;;;;14.05;7.45;;;;;;;13.95;84.30;101404.41;4975621;28;20047;-42
2022/10/05 09:53:54;;;;;;;19.92;7.85;;;;;;;14.10;83.42;101404.13;5013425;28;20021;-46
2022/10/05 09:56:33;;;;;;;26.95;8.20;;;;;;;13.98;83.49;101398.59;5023160;28;20049;-43
2022/10/05 09:59:30;;;;;;;20.42;7.57;;;;;;;14.25;82.33;101405.47;5010875;28;20033;-43
2022/10/05 10:02:32;;;;;;;18.65;7.78;;;;;;;14.04;83.18;101402.28;5012439;28;20037;-44
2022/10/05 10:05:40;;;;;;;15.25;7.05;;;;;;;14.03;83.59;101392.56;5026184;28;20497;-43
2022/10/05 10:08:12;;;;;;;21.38;8.45;;;;;;;14.16;83.19;101397.91;5011237;28;20482;-43
2022/10/05 10:10:39;;;;;;;17.65;7.63;;;;;;;14.21;82.90;101396.22;5013646;28;20469;-44
2022/10/05 10:13:40;;;;;;;20.30;8.18;;;;;;;13.85;84.77;101399.50;5011773;28;20033;-44
2022/10/05 10:16:25;;;;;;;19.38;8.05;;;;;;;14.12;83.67;101399.38;5010843;28;20037;-42
2022/10/05 10:19:18;;;;;;;15.93;8.02;;;;;;;14.21;83.41;101398.03;5010323;28;20222;-42
2022/10/05 10:22:05;;;;;;;21.08;7.70;;;;;;;14.18;83.14;101393.94;5011815;28;20080;-44
2022/10/05 10:25:06;;;;;;;23.98;8.30;;;;;;;14.19;83.07;101408.22;5010516;28;20026;-44
2022/10/05 10:27:55;;;;;;;19.40;7.38;;;;;;;14.16;82.96;101408.66;5003974;28;20490;-43
2022/10/05 10:30:42;;;;;;;18.17;7.45;;;;;;;14.24;82.50;101403.00;5005152;28;20450;-43
2022/10/05 10:33:35;;;;;;;19.05;7.57;;;;;;;14.26;82.21;101411.69;5009202;28;20030;-43
2022/10/05 10:36:16;;;;;;;22.70;8.45;;;;;;;14.23;82.40;101390.59;5009275;28;20065;-43
2022/10/05 10:39:12;;;;;;;21.90;7.93;;;;;;;14.17;82.38;101391.47;5007805;28;20060;-44
2022/10/05 10:42:25;;;;;;;24.55;8.05;;;;;;;14.12;83.16;101384.03;4974092;28;20050;-43
2022/10/05 10:45:15;;;;;;;20.35;7.80;;;;;;;14.30;82.69;101377.09;5007435;28;20042;-43
2022/10/05 10:47:54;;;;;;;19.88;7.78;;;;;;;14.20;82.37;101381.06;5009305;28;20128;-43
2022/10/05 10:50:43;;;;;;;21.77;8.23;;;;;;;14.36;82.33;101384.28;5008180;28;20056;-43
2022/10/05 10:53:09;;;;;;;24.42;8.63;;;;;;;14.25;82.68;101380.44;5009363;28;20053;-42
2022/10/05 10:56:12;;;;;;;16.70;8.02;;;;;;;14.25;81.90;101373.16;5008342;28;20037;-43
2022/10/05 10:59:04;;;;;;;22.67;8.63;;;;;;;14.44;81.37;101384.88;5021429;28;20091;-43
2022/10/05 11:01:45;;;;;;;19.33;8.02;;;;;;;14.30;81.48;101377.91;5010287;28;20111;-43
2022/10/05 11:04:45;;;;;;;23.25;9.05;;;;;;;14.07;82.98;101391.09;5031429;28;20136;-43
2022/10/05 11:07:48;;;;;;;17.65;8.05;;;;;;;14.22;81.85;101389.78;5011485;28;20113;-43
2022/10/05 11:10:19;;;;;;;17.73;8.02;;;;;;;14.28;82.30;101398.84;5016772;28;20032;-43
2022/10/05 11:13:00;;;;;;;22.48;9.52;;;;;;;14.17;82.82;101392.28;5035737;28;20096;-42
2022/10/05 11:15:42;;;;;;;18.10;8.90;;;;;;;14.22;82.62;101386.25;5024552;28;20026;-43
2022/10/05 11:18:28;;;;;;;19.77;8.55;;;;;;;14.15;82.75;101380.06;5035481;28;20039;-43
2022/10/05 11:21:16;;;;;;;21.40;8.02;;;;;;;14.30;82.08;101374.41;5033061;28;20389;-43
2022/10/05 11:24:03;;;;;;;24.52;9.23;;;;;;;14.35;81.37;101363.78;5035679;28;20094;-43
2022/10/05 11:26:47;;;;;;;18.55;7.97;;;;;;;14.44;81.33;101373.28;5034051;28;20037;-42
2022/10/05 11:30:00;;;;;;;18.73;8.13;;;;;;;14.37;81.09;101365.22;5034569;28;20528;-45
2022/10/05 11:33:02;;;;;;;18.70;7.55;;;;;;;14.35;81.99;101369.19;5033567;28;20037;-43
2022/10/05 11:35:42;;;;;;;17.63;8.25;;;;;;;14.22;82.26;101375.50;5035181;28;20033;-44
2022/10/05 11:38:35;;;;;;;24.98;8.35;;;;;;;14.23;82.04;101375.25;5034775;28;20025;-43
2022/10/05 11:41:41;;;;;;;27.58;8.85;;;;;;;14.36;81.57;101377.03;5034993;28;20065;-44
2022/10/05 11:44:25;;;;;;;16.90;8.73;;;;;;;14.42;80.84;101381.53;5035023;28;20080;-44
2022/10/05 11:47:07;;;;;;;20.15;7.75;;;;;;;14.20;82.05;101385.63;5035555;28;20652;-43
2022/10/05 11:49:43;;;;;;;22.15;8.02;;;;;;;14.23;81.85;101385.22;5033954;28;21070;-43
2022/10/05 11:52:39;;;;;;;21.00;8.02;;;;;;;14.18;81.61;101376.97;5034589;28;20022;-43
2022/10/05 11:55:20;;;;;;;19.02;8.25;;;;;;;14.23;81.28;101388.72;5014871;28;20030;-45
2022/10/05 11:57:53;;;;;;;18.60;7.45;;;;;;;14.08;81.28;101379.28;5033228;28;20033;-44
2022/10/05 12:00:57;;;;;;;20.35;8.65;;;;;;;13.91;83.23;101379.78;5034085;28;20035;-43
2022/10/05 12:03:33;;;;;;;19.02;7.93;;;;;;;13.91;82.95;101385.16;5034269;28;20029;-45
2022/10/05 12:06:14;;;;;;;23.65;8.70;;;;;;;13.89;83.68;101386.44;5013525;28;20107;-43
2022/10/05 12:08:58;;;;;;;24.50;8.05;;;;;;;13.83;83.64;101387.31;5031513;28;20025;-43
2022/10/05 12:11:52;;;;;;;19.35;7.95;;;;;;;13.96;83.07;101379.97;5034414;28;20059;-44
2022/10/05 12:14:33;;;;;;;15.48;7.93;;;;;;;13.87;83.39;101389.31;5032047;28;20029;-44
2022/10/05 12:17:26;;;;;;;18.27;7.75;;;;;;;13.94;83.19;101386.63;5034255;28;20029;-43
2022/10/05 12:20:04;;;;;;;18.77;8.23;;;;;;;13.93;82.65;101384.94;5020834;28;20033;-43
2022/10/05 12:22:32;;;;;;;14.68;7.47;;;;;;;13.84;82.97;101397.03;5014277;28;20081;-43
2022/10/05 12:25:32;;;;;;;20.20;8.02;;;;;;;13.89;82.57;101395.34;5024614;28;20030;-44
2022/10/05 12:28:07;;;;;;;14.68;7.05;;;;;;;13.70;82.86;101385.47;5023026;28;20414;-45
2022/10/05 12:30:51;;;;;;;;;;;;;;;13.93;82.16;101393.84;5014340;28;20052;-43
2022/10/05 12:33:26;;;;;;;14.43;6.30;;;;;;;13.85;82.10;101390.59;5014226;28;19956;-47
2022/10/05 12:36:17;;;;;;;15.45;6.20;;;;;;;13.83;82.41;101401.56;5014572;28;20056;-43